Time;durP1;ratioP1;P1;durP2;ratioP2;P2;SDS_P1;SDS_P2;PMS_P1;PMS_P2;Temp;Humidity;BMP_temperature;BMP_pressure;BME280_temperature;BME280_humidity;BME280_pressure;Samples;Min_cycle;Max_cycle;Signal;HPM_P1;HPM_P2
2021/11/18 00:01:49;;;;;;;22.20;16.13;;;11.30;99.90;;;;;;6152804;23;20013;-73
2021/11/18 00:04:15;;;;;;;32.22;17.52;;;11.40;99.90;;;;;;6153739;23;20388;-73
2021/11/18 00:06:44;;;;;;;23.00;16.20;;;11.40;99.90;;;;;;6152829;23;19998;-73
2021/11/18 00:09:09;;;;;;;24.25;16.33;;;11.40;99.90;;;;;;6153440;23;20045;-74
2021/11/18 00:11:35;;;;;;;23.65;16.33;;;11.50;99.90;;;;;;6152795;23;20417;-74
2021/11/18 00:14:01;;;;;;;22.58;16.08;;;11.50;99.90;;;;;;6153597;23;20013;-73
2021/11/18 00:16:27;;;;;;;22.00;16.15;;;11.50;99.90;;;;;;6152634;23;20096;-73
2021/11/18 00:18:52;;;;;;;22.15;16.00;;;11.50;99.90;;;;;;6176898;23;20084;-73
2021/11/18 00:21:28;;;;;;;25.73;16.38;;;11.40;99.90;;;;;;6153184;23;20472;-73
2021/11/18 00:23:56;;;;;;;25.48;15.55;;;11.40;99.90;;;;;;6176796;23;20456;-73
2021/11/18 00:26:24;;;;;;;22.42;15.63;;;11.30;99.90;;;;;;6152842;23;20028;-73
2021/11/18 00:28:50;;;;;;;21.00;15.52;;;11.30;99.90;;;;;;6153359;23;20002;-73
2021/11/18 00:31:19;;;;;;;21.20;15.35;;;11.30;99.90;;;;;;6152993;23;20333;-73
2021/11/18 00:33:46;;;;;;;22.95;15.25;;;11.20;99.90;;;;;;6153480;23;20089;-73
2021/11/18 00:36:14;;;;;;;26.48;15.68;;;11.20;99.90;;;;;;6153002;23;20012;-73
2021/11/18 00:38:40;;;;;;;19.92;14.93;;;11.20;99.90;;;;;;6153206;23;20001;-73
2021/11/18 00:41:06;;;;;;;23.15;15.00;;;11.10;99.90;;;;;;6153038;23;20008;-74
2021/11/18 00:43:32;;;;;;;21.58;15.27;;;11.10;99.90;;;;;;6151449;23;20027;-73
2021/11/18 00:45:58;;;;;;;19.73;13.88;;;11.10;99.90;;;;;;6151595;23;20058;-73
2021/11/18 00:48:24;;;;;;;19.00;14.57;;;11.10;99.90;;;;;;6151571;23;20010;-73
2021/11/18 00:50:55;;;;;;;24.70;16.42;;;11.10;99.90;;;;;;6153023;23;20025;-73
2021/11/18 00:53:21;;;;;;;19.45;14.73;;;11.00;99.90;;;;;;6152866;23;20060;-73
2021/11/18 00:55:47;;;;;;;21.63;15.05;;;11.00;99.90;;;;;;6152887;23;20085;-73
2021/11/18 00:58:13;;;;;;;23.75;14.32;;;10.90;99.90;;;;;;6152912;23;20036;-73
2021/11/18 01:00:42;;;;;;;20.05;14.15;;;10.90;99.90;;;;;;6176570;23;20006;-73
2021/11/18 01:03:09;;;;;;;18.15;13.95;;;10.90;99.90;;;;;;6152684;23;20010;-73
2021/11/18 01:05:38;;;;;;;21.58;14.68;;;10.90;99.90;;;;;;6153262;23;19994;-73
2021/11/18 01:08:04;;;;;;;20.08;14.82;;;10.90;99.90;;;;;;6152798;23;20002;-73
2021/11/18 01:10:36;;;;;;;19.58;14.32;;;11.00;99.90;;;;;;6152872;23;20014;-74
2021/11/18 01:13:03;;;;;;;22.30;13.32;;;10.90;99.90;;;;;;6175903;23;20006;-73
2021/11/18 01:15:30;;;;;;;22.45;13.95;;;10.90;99.90;;;;;;6153318;23;20326;-74
2021/11/18 01:17:57;;;;;;;22.88;14.88;;;10.90;99.90;;;;;;6152769;23;20014;-73
2021/11/18 01:20:25;;;;;;;22.52;13.90;;;10.90;99.90;;;;;;6153915;23;20038;-73
2021/11/18 01:22:54;;;;;;;18.15;12.82;;;10.90;99.90;;;;;;6154242;23;20002;-73
2021/11/18 01:25:20;;;;;;;18.27;12.55;;;10.90;99.90;;;;;;6178013;23;20021;-73
2021/11/18 01:27:46;;;;;;;19.13;13.82;;;10.90;99.90;;;;;;6154454;23;20005;-73
2021/11/18 01:30:18;;;;;;;19.60;12.82;;;10.90;99.90;;;;;;6154766;23;20005;-73
2021/11/18 01:32:44;;;;;;;14.90;12.05;;;10.90;99.90;;;;;;6154683;23;20063;-73
2021/11/18 01:35:10;;;;;;;17.58;12.82;;;10.90;99.90;;;;;;6154765;23;20005;-73
2021/11/18 01:37:36;;;;;;;17.40;12.75;;;10.90;99.90;;;;;;6154219;23;20016;-73
2021/11/18 01:40:05;;;;;;;20.27;13.02;;;10.90;99.90;;;;;;6154629;23;19989;-73
2021/11/18 01:42:31;;;;;;;20.63;12.73;;;10.90;99.90;;;;;;6154137;23;20005;-73
2021/11/18 01:44:57;;;;;;;17.38;12.35;;;10.90;99.90;;;;;;6153237;23;20028;-73
2021/11/18 01:47:23;;;;;;;17.50;12.65;;;10.90;99.90;;;;;;6154225;23;20005;-73
2021/11/18 01:49:50;;;;;;;21.00;12.68;;;11.00;99.90;;;;;;6154850;23;20064;-73
2021/11/18 01:52:22;;;;;;;16.95;12.18;;;11.00;99.90;;;;;;6153938;23;20076;-73
2021/11/18 01:54:49;;;;;;;19.10;12.77;;;11.00;99.90;;;;;;6154968;23;20005;-73
2021/11/18 01:57:22;;;;;;;18.23;13.15;;;11.00;99.90;;;;;;6153867;23;20088;-73
2021/11/18 01:59:48;;;;;;;19.23;13.15;;;11.00;99.90;;;;;;6154715;23;20002;-73
2021/11/18 02:02:15;;;;;;;17.45;12.75;;;11.00;99.90;;;;;;6154017;23;20005;-73
2021/11/18 02:04:54;;;;;;;16.02;12.68;;;11.00;99.90;;;;;;6154761;23;20005;-73
2021/11/18 02:07:20;;;;;;;17.27;12.98;;;10.90;99.90;;;;;;6154200;23;20084;-73
2021/11/18 02:09:49;;;;;;;19.45;13.73;;;10.90;99.90;;;;;;6177640;23;20018;-73
2021/11/18 02:12:17;;;;;;;18.48;12.73;;;10.90;99.90;;;;;;6153707;23;19997;-73
2021/11/18 02:14:44;;;;;;;16.52;12.93;;;10.90;99.90;;;;;;6154616;23;20005;-74
2021/11/18 02:17:14;;;;;;;19.02;12.40;;;11.00;99.90;;;;;;6176964;23;20014;-73
2021/11/18 02:19:47;;;;;;;16.45;12.20;;;11.00;99.90;;;;;;6177814;23;20005;-74
2021/11/18 02:22:14;;;;;;;17.20;12.40;;;10.90;99.90;;;;;;6176652;23;20340;-73
2021/11/18 02:24:45;;;;;;;20.70;13.38;;;10.90;99.90;;;;;;6154722;23;19998;-73
2021/11/18 02:27:13;;;;;;;18.80;12.95;;;10.90;99.90;;;;;;6153343;23;20326;-73
2021/11/18 02:29:42;;;;;;;18.10;14.23;;;10.90;99.90;;;;;;6154475;23;20064;-73
2021/11/18 02:32:10;;;;;;;21.05;13.48;;;10.90;99.90;;;;;;6153612;23;20012;-74
2021/11/18 02:34:44;;;;;;;18.00;12.75;;;10.90;99.90;;;;;;6154412;23;20002;-73
2021/11/18 02:37:10;;;;;;;17.40;13.55;;;10.80;99.90;;;;;;6176554;23;20017;-73
2021/11/18 02:39:36;;;;;;;18.08;13.35;;;10.80;99.90;;;;;;6152773;23;20306;-73
2021/11/18 02:42:04;;;;;;;17.00;13.18;;;10.80;99.90;;;;;;6153279;23;20002;-73
2021/11/18 02:44:31;;;;;;;19.17;13.35;;;10.90;99.90;;;;;;6154378;23;19997;-73
2021/11/18 02:47:00;;;;;;;19.10;13.38;;;10.90;99.90;;;;;;6153574;23;20005;-74
2021/11/18 02:49:25;;;;;;;18.67;13.05;;;10.80;99.90;;;;;;6154322;23;20017;-73
2021/11/18 02:51:51;;;;;;;16.45;12.65;;;10.90;99.90;;;;;;6153448;23;20009;-73
2021/11/18 02:54:18;;;;;;;17.33;13.02;;;10.90;99.90;;;;;;6154047;23;20373;-73
2021/11/18 02:56:44;;;;;;;22.08;13.10;;;10.90;99.90;;;;;;6153163;23;20088;-73
2021/11/18 02:59:10;;;;;;;19.00;13.02;;;10.90;99.90;;;;;;6177232;23;20005;-73
2021/11/18 03:01:39;;;;;;;21.30;13.70;;;10.90;99.90;;;;;;6153367;23;19997;-73
2021/11/18 03:04:05;;;;;;;19.92;12.68;;;10.90;99.90;;;;;;6154111;23;19997;-73
2021/11/18 03:06:31;;;;;;;20.40;14.00;;;10.90;99.90;;;;;;6153383;23;19997;-73
2021/11/18 03:08:57;;;;;;;19.95;12.70;;;11.00;99.90;;;;;;6153825;23;20016;-73
2021/11/18 03:11:25;;;;;;;20.00;13.10;;;11.00;99.90;;;;;;6153305;23;20043;-73
2021/11/18 03:13:53;;;;;;;18.25;13.68;;;11.00;99.90;;;;;;6153797;23;20076;-73
2021/11/18 03:16:20;;;;;;;17.73;13.25;;;10.90;99.90;;;;;;6153468;23;20013;-73
2021/11/18 03:18:46;;;;;;;17.17;12.60;;;10.90;99.90;;;;;;6153980;23;20440;-73
2021/11/18 03:21:16;;;;;;;18.80;13.35;;;10.90;99.90;;;;;;6176752;23;20020;-73
2021/11/18 03:23:43;;;;;;;17.98;13.43;;;10.90;99.90;;;;;;6151794;23;20006;-74
2021/11/18 03:26:10;;;;;;;18.10;12.65;;;10.80;99.90;;;;;;6153407;23;20002;-73
2021/11/18 03:28:36;;;;;;;21.08;13.52;;;10.80;99.90;;;;;;6153606;23;20006;-73
2021/11/18 03:31:04;;;;;;;19.60;13.80;;;10.80;99.90;;;;;;6151934;23;20037;-73
2021/11/18 03:33:43;;;;;;;16.85;13.05;;;10.80;99.90;;;;;;6153526;23;20056;-73
2021/11/18 03:36:10;;;;;;;17.15;12.63;;;10.80;99.90;;;;;;6153342;23;20029;-73
2021/11/18 03:38:37;;;;;;;15.63;12.75;;;10.80;99.90;;;;;;6153483;23;20033;-73
2021/11/18 03:41:05;;;;;;;17.75;12.90;;;10.80;99.90;;;;;;6153202;23;20006;-73
2021/11/18 03:43:34;;;;;;;18.10;12.73;;;10.80;99.90;;;;;;6153242;23;20033;-73
2021/11/18 03:46:00;;;;;;;15.52;12.40;;;10.80;99.90;;;;;;6153532;23;20002;-73
2021/11/18 03:48:29;;;;;;;18.33;12.30;;;10.80;99.90;;;;;;6153504;23;20004;-73
2021/11/18 03:50:55;;;;;;;17.00;12.68;;;10.70;99.90;;;;;;6153335;23;20006;-74
2021/11/18 03:53:21;;;;;;;24.45;14.18;;;10.70;99.90;;;;;;6153465;23;20024;-73
2021/11/18 03:55:47;;;;;;;21.20;12.93;;;10.70;99.90;;;;;;6151762;23;20002;-73
2021/11/18 03:58:13;;;;;;;17.75;13.02;;;10.70;99.90;;;;;;6151866;23;20017;-73
2021/11/18 04:00:40;;;;;;;14.20;11.68;;;10.60;99.90;;;;;;6176717;23;20332;-73
2021/11/18 04:03:08;;;;;;;15.85;11.93;;;10.60;99.90;;;;;;6153155;23;20029;-73
2021/11/18 04:05:36;;;;;;;23.33;11.98;;;10.60;99.90;;;;;;6176789;23;20010;-73
2021/11/18 04:08:02;;;;;;;15.77;11.63;;;10.60;99.90;;;;;;6153052;23;20001;-73
2021/11/18 04:10:30;;;;;;;16.45;11.75;;;10.50;99.90;;;;;;6153266;23;20024;-71
2021/11/18 04:12:56;;;;;;;16.80;12.20;;;10.50;99.90;;;;;;6153023;23;20045;-73
2021/11/18 04:15:24;;;;;;;14.80;12.40;;;10.50;99.90;;;;;;6153542;23;20001;-73
2021/11/18 04:17:51;;;;;;;16.02;12.30;;;10.50;99.90;;;;;;6153002;23;20016;-73
2021/11/18 04:20:18;;;;;;;15.13;12.15;;;10.50;99.90;;;;;;6153367;23;20002;-73
2021/11/18 04:22:45;;;;;;;14.15;11.18;;;10.50;99.90;;;;;;6152992;23;20087;-73
2021/11/18 04:25:14;;;;;;;14.38;11.57;;;10.50;99.90;;;;;;6153399;23;20047;-73
2021/11/18 04:27:41;;;;;;;13.25;11.63;;;10.50;99.90;;;;;;6153006;23;20005;-73
2021/11/18 04:30:11;;;;;;;18.00;11.82;;;10.50;99.90;;;;;;6153244;23;20008;-73
2021/11/18 04:32:36;;;;;;;16.95;11.48;;;10.50;99.90;;;;;;6176058;23;20008;-73
2021/11/18 04:35:04;;;;;;;15.35;12.13;;;10.50;99.90;;;;;;6153382;23;20001;-73
2021/11/18 04:37:30;;;;;;;15.07;12.02;;;10.60;99.90;;;;;;6175778;23;20018;-73
2021/11/18 04:39:56;;;;;;;16.58;13.02;;;10.50;99.90;;;;;;6153158;23;20081;-73
2021/11/18 04:42:23;;;;;;;15.23;11.48;;;10.60;99.90;;;;;;6152469;23;20001;-73
2021/11/18 04:44:49;;;;;;;14.57;11.30;;;10.60;99.90;;;;;;6151456;23;20325;-73
2021/11/18 04:47:15;;;;;;;13.95;11.65;;;10.60;99.90;;;;;;6152654;23;20007;-73
2021/11/18 04:49:44;;;;;;;15.98;12.40;;;10.60;99.90;;;;;;6153309;23;20073;-73
2021/11/18 04:52:12;;;;;;;14.95;11.90;;;10.60;99.90;;;;;;6152302;23;20459;-73
2021/11/18 04:54:38;;;;;;;16.48;11.23;;;10.60;99.90;;;;;;6153309;23;20538;-72
2021/11/18 04:57:04;;;;;;;15.30;11.98;;;10.50;99.90;;;;;;6154007;23;20048;-73
2021/11/18 04:59:30;;;;;;;16.98;11.43;;;10.50;99.90;;;;;;6155193;23;19997;-73
2021/11/18 05:01:56;;;;;;;13.82;11.18;;;10.50;99.90;;;;;;6154365;23;20009;-73
2021/11/18 05:04:23;;;;;;;15.45;11.90;;;10.50;99.90;;;;;;6154979;23;20024;-73
2021/11/18 05:06:48;;;;;;;14.88;11.60;;;10.50;99.90;;;;;;6154287;23;19998;-73
2021/11/18 05:09:14;;;;;;;13.55;11.07;;;10.40;99.90;;;;;;6154821;23;20018;-73
2021/11/18 05:11:41;;;;;;;20.85;11.35;;;10.40;99.90;;;;;;6154132;23;20002;-73
2021/11/18 05:14:08;;;;;;;14.00;10.85;;;10.40;99.90;;;;;;6154826;23;20048;-73
2021/11/18 05:16:34;;;;;;;14.02;10.80;;;10.40;99.90;;;;;;6154405;23;20101;-73
2021/11/18 05:19:00;;;;;;;15.18;10.88;;;10.30;99.90;;;;;;6154978;23;20025;-73
2021/11/18 05:21:29;;;;;;;13.73;11.30;;;10.40;99.90;;;;;;6154193;23;20381;-73
2021/11/18 05:23:56;;;;;;;13.80;11.57;;;10.40;99.90;;;;;;6154728;23;20041;-72
2021/11/18 05:26:22;;;;;;;14.15;10.88;;;10.40;99.90;;;;;;6154287;23;19997;-73
2021/11/18 05:28:48;;;;;;;13.98;10.77;;;10.30;99.90;;;;;;6154620;23;20006;-73
2021/11/18 05:31:17;;;;;;;15.40;11.45;;;10.40;99.90;;;;;;6154358;23;20072;-73
2021/11/18 05:33:44;;;;;;;13.52;11.73;;;10.40;99.90;;;;;;6154465;23;20001;-72
2021/11/18 05:36:10;;;;;;;13.65;10.27;;;10.50;99.90;;;;;;6153935;23;20067;-73
2021/11/18 05:38:37;;;;;;;15.73;10.63;;;10.50;99.90;;;;;;6154362;23;20033;-73
2021/11/18 05:41:03;;;;;;;14.57;10.80;;;10.50;99.90;;;;;;6154340;23;19997;-73
2021/11/18 05:43:31;;;;;;;14.63;10.95;;;10.50;99.90;;;;;;6177904;23;20433;-73
2021/11/18 05:45:57;;;;;;;15.30;11.98;;;10.50;99.90;;;;;;6152496;23;20002;-73
2021/11/18 05:48:24;;;;;;;15.43;10.88;;;10.50;99.90;;;;;;6154578;23;20002;-73
2021/11/18 05:50:54;;;;;;;14.55;11.05;;;10.50;99.90;;;;;;6154428;23;20037;-73
2021/11/18 05:53:25;;;;;;;15.35;11.27;;;10.50;99.90;;;;;;6154458;23;20009;-73
2021/11/18 05:55:52;;;;;;;14.02;10.93;;;10.50;99.90;;;;;;6154260;23;20421;-75
2021/11/18 05:58:18;;;;;;;14.07;10.73;;;10.50;99.90;;;;;;6154193;23;20433;-74
2021/11/18 06:00:44;;;;;;;11.95;10.63;;;10.50;99.90;;;;;;6152737;23;20005;-74
2021/11/18 06:03:09;;;;;;;15.45;10.32;;;10.40;99.90;;;;;;6153625;23;20008;-74
2021/11/18 06:05:35;;;;;;;13.80;9.98;;;10.40;99.90;;;;;;6152246;23;20460;-74
2021/11/18 06:08:01;;;;;;;11.60;9.82;;;10.40;99.90;;;;;;6152207;23;20001;-74
2021/11/18 06:10:30;;;;;;;14.10;10.65;;;10.40;99.90;;;;;;6152496;23;20393;-74
2021/11/18 06:12:56;;;;;;;15.30;10.27;;;10.30;99.90;;;;;;6152430;23;20427;-75
2021/11/18 06:15:22;;;;;;;14.40;10.48;;;10.30;99.90;;;;;;6153344;23;20037;-74
2021/11/18 06:17:48;;;;;;;14.50;10.15;;;10.30;99.90;;;;;;6151268;23;20384;-79
2021/11/18 06:20:15;;;;;;;13.73;10.13;;;10.20;99.90;;;;;;6183323;23;20097;-80
2021/11/18 06:22:42;;;;;;;11.63;10.25;;;10.30;99.90;;;;;;6159077;23;20006;-84
2021/11/18 06:25:09;;;;;;;11.00;9.32;;;10.30;99.90;;;;;;6177807;23;20010;-81
2021/11/18 06:27:37;;;;;;;14.25;10.20;;;10.30;99.90;;;;;;6151953;23;20079;-77
2021/11/18 06:30:06;;;;;;;13.77;10.93;;;10.30;99.90;;;;;;6150754;23;19997;-75
2021/11/18 06:32:32;;;;;;;13.38;9.90;;;10.20;99.90;;;;;;6151354;23;20032;-76
2021/11/18 06:34:58;;;;;;;13.13;10.32;;;10.20;99.90;;;;;;6152217;23;20005;-75
2021/11/18 06:37:23;;;;;;;13.13;9.95;;;10.20;99.90;;;;;;6152138;23;20100;-75
2021/11/18 06:39:49;;;;;;;13.57;9.10;;;10.30;99.90;;;;;;6153111;23;20426;-75
2021/11/18 06:42:15;;;;;;;12.48;9.80;;;10.30;99.90;;;;;;6152981;23;20080;-75
2021/11/18 06:44:42;;;;;;;14.55;9.95;;;10.30;99.90;;;;;;6154232;23;20499;-75
2021/11/18 06:47:08;;;;;;;11.70;8.98;;;10.30;99.90;;;;;;6153313;23;20044;-75
2021/11/18 06:49:34;;;;;;;16.63;9.23;;;10.30;99.90;;;;;;6154134;23;20006;-73
2021/11/18 06:52:00;;;;;;;13.05;8.73;;;10.40;99.90;;;;;;6153060;23;19994;-76
2021/11/18 06:54:26;;;;;;;12.55;9.40;;;10.40;99.90;;;;;;6153992;23;20001;-74
2021/11/18 06:56:52;;;;;;;16.08;9.35;;;10.40;99.90;;;;;;6152950;23;20528;-76
2021/11/18 06:59:18;;;;;;;12.68;9.32;;;10.40;99.90;;;;;;6154105;23;20684;-77
2021/11/18 07:01:45;;;;;;;11.93;9.02;;;10.50;99.90;;;;;;6153069;23;20001;-76
2021/11/18 07:04:12;;;;;;;13.02;8.85;;;10.40;99.90;;;;;;6153764;23;20009;-74
2021/11/18 07:06:38;;;;;;;12.77;8.80;;;10.50;99.90;;;;;;6153254;23;19998;-74
2021/11/18 07:09:06;;;;;;;12.50;9.15;;;10.50;99.90;;;;;;6153304;23;20100;-74
2021/11/18 07:11:32;;;;;;;15.02;9.05;;;10.50;99.90;;;;;;6153201;23;19998;-75
2021/11/18 07:13:58;;;;;;;13.57;8.55;;;10.50;99.90;;;;;;6153601;23;20008;-74
2021/11/18 07:16:24;;;;;;;10.82;8.80;;;10.50;99.90;;;;;;6153039;23;20010;-75
2021/11/18 07:18:51;;;;;;;11.25;8.85;;;10.50;99.90;;;;;;6153284;23;20060;-75
2021/11/18 07:21:18;;;;;;;12.85;8.13;;;10.60;99.90;;;;;;6153312;23;20090;-75
2021/11/18 07:23:45;;;;;;;11.52;8.32;;;10.70;99.90;;;;;;6153481;23;20013;-75
2021/11/18 07:26:11;;;;;;;9.35;7.90;;;10.80;99.90;;;;;;6153573;23;20452;-75
2021/11/18 07:28:38;;;;;;;10.27;8.32;;;10.90;99.90;;;;;;6153326;23;20017;-76
2021/11/18 07:31:06;;;;;;;10.13;8.15;;;11.00;99.90;;;;;;6153452;23;20028;-76
2021/11/18 07:33:32;;;;;;;9.75;7.13;;;11.10;99.90;;;;;;6153452;23;20002;-75
2021/11/18 07:35:58;;;;;;;8.38;7.47;;;11.20;99.90;;;;;;6153313;23;19998;-75
2021/11/18 07:38:27;;;;;;;10.77;8.18;;;11.40;99.90;;;;;;6153604;23;20064;-75
2021/11/18 07:40:53;;;;;;;8.75;7.65;;;11.40;99.90;;;;;;6153434;23;20017;-75
2021/11/18 07:43:22;;;;;;;10.07;7.40;;;11.50;99.90;;;;;;6153357;23;20005;-75
2021/11/18 07:45:50;;;;;;;9.25;7.50;;;11.50;99.90;;;;;;6153412;23;20024;-75
2021/11/18 07:48:15;;;;;;;9.27;7.25;;;11.70;99.90;;;;;;6151862;23;20002;-75
2021/11/18 07:50:42;;;;;;;7.97;7.18;;;11.90;99.90;;;;;;6153638;23;20072;-81
2021/11/18 07:53:07;;;;;;;8.43;7.60;;;12.00;99.90;;;;;;6153076;23;20024;-76
2021/11/18 07:55:33;;;;;;;11.52;8.43;;;12.00;99.90;;;;;;6153562;23;20429;-76
2021/11/18 07:57:59;;;;;;;11.38;8.88;;;12.10;99.90;;;;;;6151051;23;20013;-76
2021/11/18 08:00:26;;;;;;;11.43;7.95;;;12.10;99.90;;;;;;6153412;23;20077;-76
2021/11/18 08:02:52;;;;;;;12.70;7.60;;;12.20;99.90;;;;;;6153108;23;20089;-75
2021/11/18 08:05:18;;;;;;;12.43;7.28;;;12.30;99.90;;;;;;6153352;23;20001;-77
2021/11/18 08:07:44;;;;;;;8.52;6.95;;;12.40;99.90;;;;;;6152991;23;20006;-76
2021/11/18 08:10:12;;;;;;;8.35;6.63;;;12.50;99.90;;;;;;6151346;23;20026;-75
2021/11/18 08:12:38;;;;;;;8.57;6.97;;;12.70;99.90;;;;;;6151334;23;20002;-75
2021/11/18 08:15:05;;;;;;;7.25;6.47;;;12.80;99.90;;;;;;6151634;23;20070;-76
2021/11/18 08:17:31;;;;;;;9.45;6.90;;;12.90;99.90;;;;;;6152528;23;20448;-76
2021/11/18 08:19:57;;;;;;;7.32;6.18;;;13.00;99.90;;;;;;6153265;23;19997;-76
2021/11/18 08:22:22;;;;;;;6.63;5.93;;;13.00;99.90;;;;;;6152906;23;20472;-75
2021/11/18 08:24:48;;;;;;;7.43;6.65;;;13.00;99.90;;;;;;6153377;23;20009;-75
2021/11/18 08:27:14;;;;;;;6.63;5.75;;;13.10;99.90;;;;;;6152590;23;20646;-76
2021/11/18 08:29:40;;;;;;;10.18;5.93;;;13.20;99.90;;;;;;6154436;23;20005;-75
2021/11/18 08:32:07;;;;;;;11.48;5.85;;;13.20;99.90;;;;;;6152908;23;20006;-75
2021/11/18 08:34:33;;;;;;;6.35;5.55;;;13.40;99.90;;;;;;6155457;23;20004;-75
2021/11/18 08:36:59;;;;;;;6.65;5.95;;;13.40;99.90;;;;;;6154417;23;20014;-76
2021/11/18 08:39:26;;;;;;;6.10;5.47;;;13.50;99.90;;;;;;6155455;23;20002;-75
2021/11/18 08:41:57;;;;;;;5.90;5.22;;;13.60;99.90;;;;;;6152678;23;20013;-75
2021/11/18 08:44:25;;;;;;;6.20;5.20;;;13.70;99.90;;;;;;6155322;23;20036;-76
2021/11/18 08:46:52;;;;;;;5.80;5.20;;;13.70;99.90;;;;;;6154691;23;20005;-75
2021/11/18 08:49:19;;;;;;;6.43;5.07;;;13.70;99.90;;;;;;6153766;23;20012;-75
2021/11/18 08:51:45;;;;;;;7.22;6.18;;;13.80;99.90;;;;;;6154601;23;20005;-75
2021/11/18 08:54:15;;;;;;;5.93;5.00;;;13.80;99.90;;;;;;6154969;23;20044;-76
2021/11/18 08:56:42;;;;;;;5.72;5.22;;;13.80;99.90;;;;;;6154339;23;20088;-75
2021/11/18 08:59:08;;;;;;;8.93;5.55;;;13.70;99.90;;;;;;6152021;23;20100;-75
2021/11/18 09:01:35;;;;;;;8.45;5.28;;;13.70;99.90;;;;;;6153627;23;20020;-74
2021/11/18 09:04:06;;;;;;;6.63;5.38;;;13.80;99.90;;;;;;6154737;23;20041;-74
2021/11/18 09:06:32;;;;;;;6.70;5.40;;;14.00;99.90;;;;;;6154373;23;19997;-74
2021/11/18 09:08:58;;;;;;;10.43;5.88;;;14.00;99.90;;;;;;6153191;23;20010;-74
2021/11/18 09:11:26;;;;;;;8.02;5.97;;;13.90;99.90;;;;;;6152855;23;20052;-75
2021/11/18 09:13:54;;;;;;;7.30;5.72;;;13.70;99.90;;;;;;6153221;23;20328;-75
2021/11/18 09:16:22;;;;;;;8.65;5.65;;;13.50;99.90;;;;;;6152261;23;20016;-74
2021/11/18 09:18:48;;;;;;;7.85;6.00;;;13.40;99.90;;;;;;6151126;23;20012;-74
2021/11/18 09:21:17;;;;;;;6.20;5.60;;;13.30;99.90;;;;;;6152345;23;20001;-74
2021/11/18 09:24:01;;;;;;;6.75;6.00;;;13.50;99.90;;;;;;6150645;23;20006;-74
2021/11/18 09:26:29;;;;;;;6.07;5.15;;;13.70;99.90;;;;;;6152006;23;20016;-74
2021/11/18 09:28:55;;;;;;;6.28;5.30;;;13.80;99.90;;;;;;6152757;23;20001;-74
2021/11/18 09:31:22;;;;;;;6.35;5.13;;;14.00;99.90;;;;;;6154221;23;20002;-75
2021/11/18 09:33:49;;;;;;;5.80;4.80;;;14.20;99.90;;;;;;6154836;23;20046;-74
2021/11/18 09:36:16;;;;;;;10.70;8.13;;;14.30;99.90;;;;;;6154260;23;20005;-75
2021/11/18 09:38:44;;;;;;;7.60;6.30;;;14.40;99.90;;;;;;6152500;23;20023;-75
2021/11/18 09:41:25;;;;;;;6.60;5.43;;;14.60;99.90;;;;;;6153934;23;20002;-75
2021/11/18 09:44:25;;;;;;;5.82;4.97;;;14.60;99.90;;;;;;6153137;23;20314;-74
2021/11/18 09:47:00;;;;;;;5.30;4.80;;;14.70;99.90;;;;;;6153920;23;20005;-74
2021/11/18 09:50:01;;;;;;;5.72;5.20;;;14.80;99.90;;;;;;6154954;23;20001;-74
2021/11/18 09:52:47;;;;;;;7.72;4.97;;;14.90;99.90;;;;;;6152521;23;20016;-74
2021/11/18 09:55:18;;;;;;;5.72;5.13;;;15.00;99.90;;;;;;6154519;23;20043;-75
2021/11/18 09:58:02;;;;;;;7.75;6.03;;;14.90;99.90;;;;;;6152121;23;20344;-74
2021/11/18 10:00:40;;;;;;;8.57;4.78;;;14.90;99.90;;;;;;6154380;23;20032;-74
2021/11/18 10:03:17;;;;;;;6.05;5.10;;;15.00;99.90;;;;;;6153810;23;20035;-74
2021/11/18 10:06:10;;;;;;;7.03;5.00;;;15.20;99.90;;;;;;6152525;23;20006;-74
2021/11/18 10:08:47;;;;;;;4.68;4.18;;;15.30;99.90;;;;;;6153921;23;20025;-75
2021/11/18 10:11:21;;;;;;;7.78;4.82;;;15.30;99.90;;;;;;6152181;23;20198;-75
2021/11/18 10:13:51;;;;;;;4.95;4.30;;;15.40;99.90;;;;;;6152559;23;20033;-75
2021/11/18 10:16:23;;;;;;;6.38;4.55;;;15.50;99.90;;;;;;6153653;23;20006;-75
2021/11/18 10:18:53;;;;;;;6.85;4.90;;;15.70;99.70;;;;;;6154142;23;20499;-76
2021/11/18 10:21:49;;;;;;;6.53;4.88;;;15.60;99.90;;;;;;6153862;23;20077;-76
2021/11/18 10:24:21;;;;;;;4.43;4.03;;;15.60;99.70;;;;;;6149756;23;20337;-75
2021/11/18 10:27:00;;;;;;;4.53;3.85;;;15.60;99.30;;;;;;6153264;23;20001;-74
2021/11/18 10:29:30;;;;;;;4.68;4.10;;;15.40;98.90;;;;;;6154186;23;20006;-75
2021/11/18 10:32:04;;;;;;;4.95;4.30;;;15.40;99.30;;;;;;6153450;23;20345;-74
2021/11/18 10:35:14;;;;;;;6.82;4.50;;;15.20;98.90;;;;;;6152658;23;20139;-74
2021/11/18 10:37:47;;;;;;;4.97;3.80;;;15.30;99.50;;;;;;6111294;23;20005;-76
2021/11/18 10:40:16;;;;;;;5.43;4.10;;;15.40;99.10;;;;;;6153801;23;20001;-75
2021/11/18 10:43:14;;;;;;;4.15;3.45;;;15.70;97.90;;;;;;6151037;23;20001;-75
2021/11/18 10:45:47;;;;;;;5.53;4.00;;;15.70;97.40;;;;;;6143951;23;20032;-75
2021/11/18 10:48:36;;;;;;;4.70;4.00;;;15.80;97.00;;;;;;6153556;23;20065;-76
2021/11/18 10:51:31;;;;;;;5.05;3.72;;;15.90;96.80;;;;;;6153476;23;20002;-75
2021/11/18 10:54:04;;;;;;;4.40;3.55;;;15.90;96.40;;;;;;6173804;23;20092;-75
2021/11/18 10:56:40;;;;;;;4.72;3.50;;;16.00;96.50;;;;;;6151190;23;20006;-76
2021/11/18 10:59:13;;;;;;;8.23;5.20;;;16.30;95.50;;;;;;6151891;23;20041;-75
2021/11/18 11:01:46;;;;;;;9.38;5.38;;;16.40;94.60;;;;;;6151413;23;20408;-75
2021/11/18 11:04:34;;;;;;;4.25;3.25;;;16.60;94.00;;;;;;6153818;23;20011;-75
2021/11/18 11:07:00;;;;;;;7.05;4.13;;;16.50;93.50;;;;;;6151638;23;20029;-75
2021/11/18 11:09:50;;;;;;;3.72;3.17;;;16.50;93.20;;;;;;6153389;23;20088;-75
2021/11/18 11:12:22;;;;;;;3.22;2.85;;;16.40;93.20;;;;;;6152569;23;20329;-75
2021/11/18 11:15:35;;;;;;;3.15;2.25;;;16.30;93.30;;;;;;6153806;23;20040;-74
2021/11/18 11:18:19;;;;;;;2.42;2.22;;;16.10;93.00;;;;;;6062521;23;20482;-75
2021/11/18 11:21:06;;;;;;;10.77;5.13;;;16.10;93.30;;;;;;6063209;23;20085;-75
2021/11/18 11:24:10;;;;;;;4.28;3.88;;;16.20;92.80;;;;;;6120350;23;20388;-75
2021/11/18 11:27:02;;;;;;;13.63;8.55;;;16.40;92.90;;;;;;6130510;23;20425;-75
2021/11/18 11:29:52;;;;;;;3.65;2.53;;;16.50;92.00;;;;;;6152181;23;20005;-76
2021/11/18 11:32:39;;;;;;;3.88;2.80;;;16.40;91.70;;;;;;6151290;23;20010;-75
2021/11/18 11:35:32;;;;;;;4.07;2.80;;;16.30;92.00;;;;;;6153714;23;20048;-75
2021/11/18 11:37:57;;;;;;;;;;;16.20;92.00;;;;;;6153575;23;20066;-75
2021/11/18 11:40:32;;;;;;;2.95;2.30;;;16.30;92.00;;;;;;6151850;23;19913;-75
2021/11/18 11:43:06;;;;;;;4.00;3.13;;;16.50;91.80;;;;;;6151148;23;20084;-75
2021/11/18 11:45:51;;;;;;;5.50;3.42;;;16.60;90.80;;;;;;6153440;23;20027;-75
2021/11/18 11:48:22;;;;;;;3.67;2.60;;;16.70;91.00;;;;;;6153053;23;20436;-75
2021/11/18 11:51:10;;;;;;;2.53;2.17;;;16.80;90.30;;;;;;6151495;23;20060;-75
2021/11/18 11:54:02;;;;;;;3.45;2.08;;;16.90;90.20;;;;;;6153092;23;20048;-75
2021/11/18 11:56:35;;;;;;;3.28;2.10;;;17.00;89.50;;;;;;6152914;23;20084;-75
2021/11/18 11:59:13;;;;;;;3.92;2.13;;;17.00;88.50;;;;;;6153508;23;20525;-75
2021/11/18 12:02:06;;;;;;;3.30;2.85;;;17.00;89.50;;;;;;6153143;23;20017;-75
2021/11/18 12:04:49;;;;;;;3.67;2.30;;;17.10;89.00;;;;;;6153443;23;20084;-81
2021/11/18 12:07:31;;;;;;;5.15;2.20;;;17.30;88.10;;;;;;6162966;23;20017;-77
2021/11/18 12:10:12;;;;;;;2.60;2.40;;;17.70;86.00;;;;;;6158991;23;20026;-78
2021/11/18 12:12:40;;;;;;;3.15;2.45;;;18.50;84.10;;;;;;6153004;23;20569;-76
2021/11/18 12:15:11;;;;;;;3.40;3.10;;;19.30;81.40;;;;;;6153470;23;20421;-76
2021/11/18 12:17:57;;;;;;;2.95;2.35;;;19.70;78.50;;;;;;6152775;23;20051;-75
2021/11/18 12:20:32;;;;;;;2.50;2.30;;;19.40;79.60;;;;;;6152907;23;20063;-75
2021/11/18 12:23:01;;;;;;;2.78;2.58;;;19.60;77.60;;;;;;6152882;23;20002;-75
2021/11/18 12:25:35;;;;;;;4.03;2.10;;;19.30;77.60;;;;;;6153010;23;20380;-75
2021/11/18 12:28:14;;;;;;;2.75;2.40;;;19.10;78.40;;;;;;6152516;23;20072;-75
2021/11/18 12:30:54;;;;;;;2.47;2.20;;;18.90;77.70;;;;;;6152856;23;20009;-76
2021/11/18 12:33:20;;;;;;;3.28;2.42;;;19.20;77.50;;;;;;6153001;23;20002;-80
2021/11/18 12:35:51;;;;;;;2.40;2.20;;;19.90;76.10;;;;;;6152832;23;20443;-76
2021/11/18 12:38:54;;;;;;;3.60;2.25;;;20.60;73.60;;;;;;6148851;23;20377;-77
2021/11/18 12:41:39;;;;;;;2.88;2.63;;;21.70;70.30;;;;;;6148484;23;20005;-76
2021/11/18 12:44:35;;;;;;;3.88;2.10;;;22.20;67.60;;;;;;6150500;23;20334;-76
2021/11/18 12:47:03;;;;;;;3.47;2.88;;;22.50;66.50;;;;;;6148587;23;20016;-76
2021/11/18 12:49:44;;;;;;;2.25;2.00;;;22.40;65.10;;;;;;6149152;23;20009;-77
2021/11/18 12:52:24;;;;;;;2.22;2.03;;;22.50;64.00;;;;;;6146239;23;19997;-77